createdAt,value
2018-06-24T00:00:58.679Z,9.23
2018-06-24T00:03:26.776Z,6.67
2018-06-24T00:05:54.837Z,8.03
2018-06-24T00:08:23.215Z,5.03
2018-06-24T00:10:51.348Z,6.10
2018-06-24T00:13:19.425Z,6.63
2018-06-24T00:15:47.525Z,6.07
2018-06-24T00:18:15.584Z,6.20
2018-06-24T00:20:43.676Z,5.53
2018-06-24T00:23:11.767Z,5.47
2018-06-24T00:25:39.836Z,6.43
2018-06-24T00:28:07.929Z,5.80
2018-06-24T00:30:36.077Z,6.37
2018-06-24T00:33:04.160Z,7.93
2018-06-24T00:35:32.248Z,5.83
2018-06-24T00:38:00.308Z,6.30
2018-06-24T00:40:28.236Z,6.23
2018-06-24T00:42:56.300Z,8.07
2018-06-24T00:45:24.364Z,5.90
2018-06-24T00:47:52.428Z,7.73
2018-06-24T00:50:20.508Z,7.93
2018-06-24T00:52:48.572Z,6.67
2018-06-24T00:55:16.627Z,5.57
2018-06-24T00:57:44.699Z,6.87
2018-06-24T01:00:15.124Z,5.93
2018-06-24T01:02:43.204Z,7.03
2018-06-24T01:05:12.468Z,6.83
2018-06-24T01:07:41.064Z,7.13
2018-06-24T01:10:09.174Z,6.37
2018-06-24T01:12:37.277Z,6.17
2018-06-24T01:15:05.388Z,7.37
2018-06-24T01:17:33.476Z,6.63
2018-06-24T01:20:03.024Z,6.53
2018-06-24T01:22:31.117Z,9.13
2018-06-24T01:24:59.169Z,7.60
2018-06-24T01:27:27.220Z,6.40
2018-06-24T01:29:55.268Z,6.93
2018-06-24T01:32:24.096Z,6.87
2018-06-24T01:34:52.769Z,6.23
2018-06-24T01:37:20.928Z,7.20
2018-06-24T01:39:49.002Z,7.40
2018-06-24T01:42:17.096Z,6.63
2018-06-24T01:44:45.147Z,4.87
2018-06-24T01:47:13.237Z,8.27
2018-06-24T01:49:41.437Z,4.77
2018-06-24T01:52:09.693Z,6.90
2018-06-24T01:54:37.911Z,5.80
2018-06-24T01:57:06.122Z,6.97
2018-06-24T01:59:34.292Z,4.63
2018-06-24T02:02:02.399Z,4.63
2018-06-24T02:04:30.980Z,6.40
2018-06-24T02:06:59.053Z,6.57
2018-06-24T02:09:27.152Z,7.60
2018-06-24T02:11:55.214Z,7.37
2018-06-24T02:14:23.263Z,6.60
2018-06-24T02:16:51.388Z,6.83
2018-06-24T02:19:19.664Z,5.67
2018-06-24T02:21:47.732Z,6.13
2018-06-24T02:24:15.851Z,5.17
2018-06-24T02:26:44.005Z,5.40
2018-06-24T02:29:12.044Z,6.33
2018-06-24T02:31:40.125Z,5.73
2018-06-24T02:34:08.228Z,7.10
2018-06-24T02:36:36.412Z,7.30
2018-06-24T02:39:07.219Z,5.57
2018-06-24T02:41:35.449Z,4.50
2018-06-24T02:44:03.669Z,4.97
2018-06-24T02:46:31.842Z,5.93
2018-06-24T02:49:00.047Z,5.77
2018-06-24T02:51:28.156Z,5.37
2018-06-24T02:53:56.205Z,5.37
2018-06-24T02:56:24.269Z,5.30
2018-06-24T02:58:52.349Z,5.30
2018-06-24T03:01:20.395Z,4.90
2018-06-24T03:03:48.574Z,5.87
2018-06-24T03:06:16.616Z,4.70
2018-06-24T03:08:44.687Z,5.33
2018-06-24T03:11:12.756Z,5.23
2018-06-24T03:13:40.817Z,4.43
2018-06-24T03:16:08.904Z,3.47
2018-06-24T03:18:36.976Z,3.57
2018-06-24T03:21:05.378Z,4.90
2018-06-24T03:23:33.462Z,3.37
2018-06-24T03:26:01.548Z,6.87
2018-06-24T03:28:29.608Z,3.63
2018-06-24T03:30:57.656Z,3.67
2018-06-24T03:33:25.737Z,5.10
2018-06-24T03:35:53.804Z,3.57
2018-06-24T03:38:22.010Z,5.10
2018-06-24T03:40:50.061Z,4.00
2018-06-24T03:43:18.151Z,4.03
2018-06-24T03:45:46.212Z,4.23
2018-06-24T03:48:14.398Z,4.20
2018-06-24T03:50:42.556Z,4.03
2018-06-24T03:53:10.625Z,5.30
2018-06-24T03:55:38.679Z,6.07
2018-06-24T03:58:06.776Z,3.53
2018-06-24T04:00:34.848Z,5.57
2018-06-24T04:03:02.916Z,3.73
2018-06-24T04:05:30.972Z,5.33
2018-06-24T04:07:58.887Z,4.63
2018-06-24T04:10:26.994Z,5.47
2018-06-24T04:12:55.113Z,4.57
2018-06-24T04:15:23.177Z,5.17
2018-06-24T04:17:51.348Z,3.60
2018-06-24T04:20:19.449Z,4.77
2018-06-24T04:22:47.524Z,6.63
2018-06-24T04:25:15.592Z,5.83
2018-06-24T04:27:43.668Z,4.30
2018-06-24T04:30:11.790Z,3.13
2018-06-24T04:32:39.863Z,3.47
2018-06-24T04:35:07.946Z,3.83
2018-06-24T04:37:36.142Z,4.17
2018-06-24T04:40:04.237Z,5.20
2018-06-24T04:42:32.388Z,4.93
2018-06-24T04:45:00.461Z,4.77
2018-06-24T04:47:28.510Z,3.43
2018-06-24T04:49:56.561Z,2.80
2018-06-24T04:52:24.620Z,4.00
2018-06-24T04:54:52.680Z,4.63
2018-06-24T04:57:20.800Z,3.87
2018-06-24T04:59:48.893Z,3.57
2018-06-24T05:02:16.945Z,4.87
2018-06-24T05:04:45.056Z,4.67
2018-06-24T05:07:13.135Z,4.83
2018-06-24T05:09:41.186Z,3.67
2018-06-24T05:12:09.317Z,3.97
2018-06-24T05:14:37.437Z,4.20
2018-06-24T05:17:05.596Z,4.87
2018-06-24T05:19:33.665Z,4.47
2018-06-24T05:22:01.773Z,5.63
2018-06-24T05:24:30.170Z,3.13
2018-06-24T05:26:58.228Z,3.93
2018-06-24T05:29:26.289Z,5.30
2018-06-24T05:31:54.368Z,4.13
2018-06-24T05:34:22.425Z,4.47
2018-06-24T05:36:50.560Z,4.80
2018-06-24T05:39:18.640Z,5.13
2018-06-24T05:41:46.737Z,4.80
2018-06-24T05:44:14.796Z,4.97
2018-06-24T05:46:42.900Z,6.53
2018-06-24T05:49:11.007Z,4.27
2018-06-24T05:51:39.165Z,6.30
2018-06-24T05:54:07.312Z,4.87
2018-06-24T05:56:35.414Z,4.80
2018-06-24T05:59:03.558Z,6.13
2018-06-24T06:01:31.709Z,5.80
2018-06-24T06:03:59.768Z,6.07
2018-06-24T06:06:27.845Z,5.00
2018-06-24T06:08:55.942Z,4.93
2018-06-24T06:11:24.115Z,5.63
2018-06-24T06:13:52.273Z,5.63
2018-06-24T06:16:20.378Z,3.80
2018-06-24T06:18:48.435Z,7.07
2018-06-24T06:21:16.504Z,4.47
2018-06-24T06:23:44.784Z,5.10
2018-06-24T06:26:12.975Z,5.80
2018-06-24T06:28:41.034Z,6.37
2018-06-24T06:31:09.105Z,4.60
2018-06-24T06:33:37.275Z,6.23
2018-06-24T06:36:05.453Z,6.97
2018-06-24T06:41:13.375Z,4.60
2018-06-24T06:43:41.572Z,7.47
2018-06-24T06:46:12.372Z,5.37
2018-06-24T06:48:40.659Z,6.60
2018-06-24T06:51:10.248Z,7.50
2018-06-24T06:53:38.462Z,7.40
2018-06-24T06:56:07.168Z,6.00
2018-06-24T06:58:35.433Z,6.03
2018-06-24T07:01:03.719Z,4.73
2018-06-24T07:03:32.035Z,3.93
2018-06-24T07:06:00.230Z,7.10
2018-06-24T07:08:28.339Z,6.67
2018-06-24T07:10:56.460Z,4.57
2018-06-24T07:13:24.650Z,4.40
2018-06-24T07:15:52.820Z,5.93
2018-06-24T07:18:20.926Z,4.17
2018-06-24T07:20:49.062Z,5.27
2018-06-24T07:23:17.280Z,4.60
2018-06-24T07:25:46.068Z,4.77
2018-06-24T07:28:14.496Z,4.80
2018-06-24T07:30:42.990Z,5.67
2018-06-24T07:33:11.386Z,3.63
2018-06-24T07:35:39.528Z,7.53
2018-06-24T07:38:07.988Z,5.40
2018-06-24T07:40:36.156Z,4.03
2018-06-24T07:43:04.457Z,4.27
2018-06-24T07:45:32.627Z,5.00
2018-06-24T07:48:00.717Z,3.67
2018-06-24T07:50:28.760Z,3.37
2018-06-24T07:52:56.942Z,3.57
2018-06-24T07:55:25.216Z,3.20
2018-06-24T07:57:53.296Z,2.87
2018-06-24T08:00:21.387Z,2.90
2018-06-24T08:02:49.441Z,3.97
2018-06-24T08:05:17.659Z,2.77
2018-06-24T08:07:45.863Z,2.83
2018-06-24T08:10:13.820Z,3.07
2018-06-24T08:12:41.900Z,2.90
2018-06-24T08:15:09.994Z,2.80
2018-06-24T08:17:38.056Z,3.57
2018-06-24T08:20:06.221Z,3.63
2018-06-24T08:22:34.413Z,2.67
2018-06-24T08:25:02.589Z,2.83
2018-06-24T08:27:30.796Z,2.20
2018-06-24T08:29:58.874Z,3.03
2018-06-24T08:32:26.949Z,3.17
2018-06-24T08:34:55.028Z,1.60
2018-06-24T08:37:23.110Z,2.73
2018-06-24T08:39:51.215Z,2.23
2018-06-24T08:42:19.397Z,24.20
2018-06-24T08:44:47.452Z,20.57
2018-06-24T08:47:15.410Z,3.67
2018-06-24T08:49:43.459Z,68.93
2018-06-24T08:52:11.561Z,39.30
2018-06-24T08:54:39.718Z,13.43
2018-06-24T08:57:07.849Z,7.03
2018-06-24T08:59:35.993Z,17.63
2018-06-24T09:02:04.301Z,6.07
2018-06-24T09:04:32.606Z,5.07
2018-06-24T09:07:00.753Z,7.50
2018-06-24T09:09:28.809Z,6.03
2018-06-24T09:11:56.660Z,6.03
2018-06-24T09:14:24.841Z,13.93
2018-06-24T09:16:52.896Z,9.13
2018-06-24T09:19:21.005Z,6.77
2018-06-24T09:21:49.120Z,9.73
2018-06-24T09:24:17.193Z,6.67
2018-06-24T09:26:45.571Z,7.30
2018-06-24T09:29:13.641Z,8.80
2018-06-24T09:31:41.940Z,9.93
2018-06-24T09:34:10.110Z,8.17
2018-06-24T09:36:38.316Z,12.27
2018-06-24T09:39:09.227Z,11.30
2018-06-24T09:41:37.458Z,13.60
2018-06-24T09:44:05.959Z,12.37
2018-06-24T09:46:34.520Z,14.03
2018-06-24T09:49:02.667Z,17.13
2018-06-24T09:51:30.793Z,26.07
2018-06-24T09:53:58.958Z,16.13
2018-06-24T09:56:27.023Z,19.30
2018-06-24T09:58:55.101Z,21.73
2018-06-24T10:01:23.228Z,27.87
2018-06-24T10:03:51.397Z,23.13
2018-06-24T10:06:19.303Z,33.83
2018-06-24T10:08:47.404Z,27.37
2018-06-24T10:11:15.518Z,34.13
2018-06-24T10:13:43.716Z,36.47
2018-06-24T10:16:11.828Z,25.53
2018-06-24T10:18:40.089Z,20.70
2018-06-24T10:21:08.275Z,31.40
2018-06-24T10:23:36.446Z,20.40
2018-06-24T10:26:04.632Z,22.10
2018-06-24T10:28:32.654Z,20.33
2018-06-24T10:31:01.965Z,23.03
2018-06-24T10:33:30.133Z,26.63
2018-06-24T10:35:58.015Z,15.17
2018-06-24T10:38:26.079Z,21.10
2018-06-24T10:40:54.160Z,18.13
2018-06-24T10:43:22.245Z,17.93
2018-06-24T10:45:50.184Z,26.63
2018-06-24T10:48:18.284Z,19.07
2018-06-24T10:50:46.360Z,21.30
2018-06-24T10:53:14.586Z,24.50
2018-06-24T10:55:42.700Z,26.83
2018-06-24T10:58:10.936Z,23.23
2018-06-24T11:00:39.139Z,23.17
2018-06-24T11:03:07.287Z,29.70
2018-06-24T11:05:35.442Z,26.70
2018-06-24T11:08:03.588Z,15.73
2018-06-24T11:10:31.779Z,18.07
2018-06-24T11:12:59.952Z,14.30
2018-06-24T11:15:28.040Z,18.30
2018-06-24T11:17:56.116Z,19.27
2018-06-24T11:20:24.220Z,16.23
2018-06-24T11:22:52.358Z,17.77
2018-06-24T11:25:20.443Z,18.20
2018-06-24T11:27:48.532Z,22.43
2018-06-24T11:30:16.624Z,15.70
2018-06-24T11:32:44.727Z,24.30
2018-06-24T11:35:12.829Z,23.63
2018-06-24T11:37:40.956Z,71.50
2018-06-24T11:40:09.132Z,21.50
2018-06-24T11:42:37.273Z,19.80
2018-06-24T11:45:05.679Z,16.60
2018-06-24T11:47:33.856Z,16.83
2018-06-24T11:50:02.338Z,13.97
2018-06-24T11:52:30.592Z,14.60
2018-06-24T11:54:58.690Z,12.23
2018-06-24T11:57:26.778Z,13.07
2018-06-24T11:59:54.948Z,15.87
2018-06-24T12:02:23.082Z,15.70
2018-06-24T12:04:51.209Z,14.63
2018-06-24T12:07:19.397Z,15.70
2018-06-24T12:09:47.571Z,26.27
2018-06-24T12:12:15.633Z,13.00
2018-06-24T12:14:43.733Z,47.00
2018-06-24T12:17:12.151Z,26.20
2018-06-24T12:19:40.427Z,33.77
2018-06-24T12:22:08.600Z,19.23
2018-06-24T12:24:36.740Z,39.13
2018-06-24T12:27:05.144Z,33.73
2018-06-24T12:29:33.351Z,30.57
2018-06-24T12:32:01.628Z,30.60
2018-06-24T12:34:29.730Z,25.10
2018-06-24T12:36:57.872Z,20.13
2018-06-24T12:39:25.980Z,19.83
2018-06-24T12:41:54.093Z,26.40
2018-06-24T12:44:22.295Z,21.80
2018-06-24T12:46:50.488Z,22.23
2018-06-24T12:49:18.649Z,19.40
2018-06-24T12:51:46.822Z,15.60
2018-06-24T12:54:14.920Z,18.43
2018-06-24T12:56:43.079Z,24.83
2018-06-24T12:59:11.388Z,16.73
2018-06-24T13:01:39.401Z,18.63
2018-06-24T13:04:07.693Z,23.13
2018-06-24T13:06:36.050Z,31.37
2018-06-24T13:09:07.297Z,28.00
2018-06-24T13:11:35.959Z,23.27
2018-06-24T13:14:04.808Z,32.57
2018-06-24T13:16:32.957Z,23.47
2018-06-24T13:19:01.124Z,23.97
2018-06-24T13:21:29.377Z,24.33
2018-06-24T13:23:57.556Z,29.37
2018-06-24T13:26:25.514Z,29.43
2018-06-24T13:28:53.673Z,24.23
2018-06-24T13:31:21.825Z,21.73
2018-06-24T13:33:49.936Z,21.50
2018-06-24T13:36:18.057Z,23.53
2018-06-24T13:38:46.196Z,25.87
2018-06-24T13:41:14.569Z,25.77
2018-06-24T13:43:42.668Z,20.20
2018-06-24T13:46:10.727Z,16.70
2018-06-24T13:48:38.954Z,19.53
2018-06-24T13:51:07.243Z,15.97
2018-06-24T13:53:35.452Z,17.53
2018-06-24T13:56:03.622Z,14.90
2018-06-24T13:58:31.721Z,14.87
2018-06-24T14:00:59.663Z,14.97
2018-06-24T14:03:27.871Z,26.87
2018-06-24T14:05:55.957Z,16.20
2018-06-24T14:08:24.159Z,19.67
2018-06-24T14:10:52.236Z,14.97
2018-06-24T14:13:20.359Z,21.03
2018-06-24T14:15:48.431Z,19.60
2018-06-24T14:18:16.488Z,14.40
2018-06-24T14:20:44.556Z,20.60
2018-06-24T14:23:12.768Z,18.47
2018-06-24T14:25:40.751Z,21.33
2018-06-24T14:28:08.847Z,22.33
2018-06-24T14:30:36.917Z,20.00
2018-06-24T14:33:05.125Z,22.57
2018-06-24T14:35:33.197Z,18.87
2018-06-24T14:38:01.316Z,22.43
2018-06-24T14:40:29.477Z,30.87
2018-06-24T14:42:57.540Z,30.23
2018-06-24T14:45:25.621Z,40.93
2018-06-24T14:47:53.737Z,34.67
2018-06-24T14:50:21.930Z,30.53
2018-06-24T14:52:50.070Z,28.20
2018-06-24T14:55:18.297Z,27.83
2018-06-24T14:57:46.425Z,26.73
2018-06-24T15:00:14.509Z,33.27
2018-06-24T15:02:43.052Z,18.60
2018-06-24T15:05:12.185Z,24.33
2018-06-24T15:07:40.628Z,28.80
2018-06-24T15:10:08.973Z,16.87
2018-06-24T15:12:37.085Z,25.03
2018-06-24T15:15:05.149Z,20.03
2018-06-24T15:17:33.219Z,27.27
2018-06-24T15:20:01.408Z,15.20
2018-06-24T15:22:29.472Z,18.53
2018-06-24T15:24:57.541Z,24.47
2018-06-24T15:27:25.628Z,35.60
2018-06-24T15:29:53.713Z,19.07
2018-06-24T15:32:22.505Z,24.90
2018-06-24T15:34:50.626Z,17.57
2018-06-24T15:37:18.731Z,17.20
2018-06-24T15:39:46.602Z,22.60
2018-06-24T15:42:15.232Z,19.13
2018-06-24T15:44:43.451Z,32.87
2018-06-24T15:47:11.521Z,21.97
2018-06-24T15:49:39.632Z,22.67
2018-06-24T15:52:07.717Z,31.90
2018-06-24T15:54:35.807Z,29.10
2018-06-24T15:57:03.885Z,13.90
2018-06-24T15:59:32.026Z,17.23
2018-06-24T16:02:00.334Z,13.17
2018-06-24T16:04:28.504Z,13.60
2018-06-24T16:06:56.560Z,11.83
2018-06-24T16:09:24.756Z,14.10
2018-06-24T16:11:52.818Z,21.20
2018-06-24T16:14:20.901Z,25.33
2018-06-24T16:16:49.053Z,17.67
2018-06-24T16:19:17.168Z,15.23
2018-06-24T16:21:45.613Z,19.57
2018-06-24T16:24:13.736Z,21.63
2018-06-24T16:26:41.829Z,18.73
2018-06-24T16:29:09.899Z,21.60
2018-06-24T16:31:37.960Z,28.23
2018-06-24T16:34:06.248Z,17.97
2018-06-24T16:36:34.296Z,16.23
2018-06-24T16:39:02.453Z,20.77
2018-06-24T16:41:30.572Z,19.60
2018-06-24T16:43:58.720Z,14.37
2018-06-24T16:46:26.768Z,17.97
2018-06-24T16:48:58.059Z,16.23
2018-06-24T16:51:26.260Z,9.13
2018-06-24T16:53:54.320Z,12.80
2018-06-24T16:56:22.571Z,20.97
2018-06-24T16:58:50.719Z,11.30
2018-06-24T17:01:18.928Z,8.37
2018-06-24T17:03:47.167Z,11.53
2018-06-24T17:06:15.181Z,13.67
2018-06-24T17:08:43.345Z,11.67
2018-06-24T17:11:11.434Z,11.90
2018-06-24T17:13:39.497Z,9.83
2018-06-24T17:16:07.540Z,12.03
2018-06-24T17:18:35.692Z,13.13
2018-06-24T17:21:03.677Z,13.63
2018-06-24T17:23:31.716Z,7.93
2018-06-24T17:25:59.877Z,12.07
2018-06-24T17:28:28.100Z,10.83
2018-06-24T17:30:56.772Z,11.80
2018-06-24T17:33:24.940Z,8.60
2018-06-24T17:35:53.021Z,7.70
2018-06-24T17:38:21.249Z,10.00
2018-06-24T17:40:55.769Z,7.37
2018-06-24T17:43:23.832Z,7.57
2018-06-24T17:45:51.945Z,8.87
2018-06-24T17:48:20.116Z,6.30
2018-06-24T17:50:48.276Z,6.37
2018-06-24T17:53:16.399Z,6.07
2018-06-24T17:55:44.420Z,8.40
2018-06-24T17:58:12.478Z,7.87
2018-06-24T18:00:40.558Z,9.47
2018-06-24T18:03:08.618Z,5.30
2018-06-24T18:05:36.857Z,7.33
2018-06-24T18:08:05.478Z,6.27
2018-06-24T18:10:33.531Z,6.97
2018-06-24T18:13:01.616Z,6.63
2018-06-24T18:15:29.710Z,6.50
2018-06-24T18:17:57.792Z,6.27
2018-06-24T18:20:26.611Z,9.13
2018-06-24T18:22:54.789Z,9.33
2018-06-24T18:25:22.917Z,4.90
2018-06-24T18:27:51.185Z,6.90
2018-06-24T18:30:19.317Z,7.67
2018-06-24T18:32:48.271Z,6.10
2018-06-24T18:35:16.566Z,4.90
2018-06-24T18:37:44.743Z,5.57
2018-06-24T18:40:12.894Z,6.07
2018-06-24T18:42:41.087Z,5.23
2018-06-24T18:45:09.172Z,5.13
2018-06-24T18:47:37.304Z,5.47
2018-06-24T18:50:05.372Z,7.30
2018-06-24T18:52:33.628Z,6.73
2018-06-24T18:55:01.690Z,7.60
2018-06-24T18:57:29.916Z,4.97
2018-06-24T18:59:57.975Z,4.07
2018-06-24T19:02:26.128Z,4.97
2018-06-24T19:04:54.300Z,4.87
2018-06-24T19:07:22.465Z,4.20
2018-06-24T19:09:50.658Z,6.57
2018-06-24T19:12:18.773Z,4.57
2018-06-24T19:14:46.802Z,5.03
2018-06-24T19:17:14.896Z,5.60
2018-06-24T19:19:42.984Z,4.70
2018-06-24T19:22:11.068Z,4.43
2018-06-24T19:24:39.162Z,5.17
2018-06-24T19:27:07.208Z,3.53
2018-06-24T19:29:35.348Z,4.93
2018-06-24T19:32:03.387Z,6.83
2018-06-24T19:34:32.538Z,4.40
2018-06-24T19:37:00.656Z,4.17
2018-06-24T19:39:28.758Z,4.03
2018-06-24T19:41:56.871Z,3.37
2018-06-24T19:44:25.082Z,4.70
2018-06-24T19:46:53.219Z,3.70
2018-06-24T19:49:21.388Z,4.73
2018-06-24T19:51:49.576Z,4.93
2018-06-24T19:54:18.632Z,4.83
2018-06-24T19:56:46.935Z,5.10
2018-06-24T19:59:14.939Z,3.87
2018-06-24T20:01:43.152Z,3.60
2018-06-24T20:04:11.426Z,6.10
2018-06-24T20:06:39.478Z,4.73
2018-06-24T20:09:08.951Z,4.93
2018-06-24T20:11:37.027Z,6.47
2018-06-24T20:16:32.694Z,4.07
2018-06-24T20:19:00.716Z,3.27
2018-06-24T20:21:28.773Z,5.13
2018-06-24T20:23:56.836Z,4.00
2018-06-24T20:26:24.984Z,3.37
2018-06-24T20:28:53.353Z,3.53
2018-06-24T20:31:21.492Z,2.87
2018-06-24T20:33:49.584Z,4.87
2018-06-24T20:36:17.732Z,3.40
2018-06-24T20:38:45.884Z,3.70
2018-06-24T20:41:13.929Z,3.77
2018-06-24T20:43:42.040Z,4.20
2018-06-24T20:46:10.101Z,4.77
2018-06-24T20:48:38.407Z,3.40
2018-06-24T20:51:06.553Z,4.40
2018-06-24T20:53:34.615Z,4.13
2018-06-24T20:56:02.684Z,3.17
2018-06-24T20:58:30.741Z,4.90
2018-06-24T21:00:58.800Z,3.50
2018-06-24T21:03:26.863Z,5.47
2018-06-24T21:05:54.970Z,4.00
2018-06-24T21:08:23.030Z,4.10
2018-06-24T21:10:51.120Z,3.90
2018-06-24T21:13:19.236Z,4.23
2018-06-24T21:15:47.519Z,3.73
2018-06-24T21:18:15.656Z,3.97
2018-06-24T21:20:43.720Z,4.07
2018-06-24T21:23:11.801Z,4.87
2018-06-24T21:25:39.882Z,4.43
2018-06-24T21:28:07.980Z,3.47
2018-06-24T21:30:36.048Z,4.53
2018-06-24T21:33:04.206Z,2.70
2018-06-24T21:35:32.133Z,4.67
2018-06-24T21:38:00.253Z,4.67
2018-06-24T21:40:28.313Z,3.77
2018-06-24T21:42:56.355Z,3.73
2018-06-24T21:45:24.501Z,3.50
2018-06-24T21:47:52.564Z,4.13
2018-06-24T21:50:20.680Z,3.87
2018-06-24T21:52:48.804Z,5.07
2018-06-24T21:55:16.926Z,4.03
2018-06-24T21:57:44.986Z,4.07
2018-06-24T22:00:13.081Z,3.97
2018-06-24T22:02:41.145Z,3.70
2018-06-24T22:05:09.208Z,4.40
2018-06-24T22:07:37.272Z,4.27
2018-06-24T22:10:05.655Z,4.17
2018-06-24T22:12:33.708Z,5.13
2018-06-24T22:15:01.777Z,4.07
2018-06-24T22:17:29.844Z,3.80
2018-06-24T22:19:57.910Z,5.13
2018-06-24T22:22:26.013Z,4.63
2018-06-24T22:24:54.131Z,3.77
2018-06-24T22:27:22.273Z,3.93
2018-06-24T22:29:50.388Z,4.20
2018-06-24T22:32:18.505Z,4.33
2018-06-24T22:34:46.629Z,4.33
2018-06-24T22:37:15.195Z,3.00
2018-06-24T22:39:43.269Z,5.43
2018-06-24T22:42:11.416Z,2.80
2018-06-24T22:44:39.551Z,3.77
2018-06-24T22:47:07.592Z,3.87
2018-06-24T22:49:35.672Z,4.40
2018-06-24T22:52:03.757Z,4.27
2018-06-24T22:54:32.456Z,3.93
2018-06-24T22:57:00.565Z,3.93
2018-06-24T22:59:40.216Z,3.67
2018-06-24T23:02:08.291Z,4.23
2018-06-24T23:04:36.369Z,4.30
2018-06-24T23:07:04.485Z,3.53
2018-06-24T23:09:32.621Z,4.00
2018-06-24T23:12:00.795Z,4.63
2018-06-24T23:14:28.848Z,4.13
2018-06-24T23:16:56.909Z,4.33
2018-06-24T23:19:25.004Z,4.27
2018-06-24T23:21:53.120Z,4.60
2018-06-24T23:24:21.233Z,4.17
2018-06-24T23:26:49.336Z,3.23
2018-06-24T23:29:17.434Z,4.53
2018-06-24T23:31:45.494Z,3.73
2018-06-24T23:34:13.628Z,3.50
2018-06-24T23:36:41.702Z,3.97
2018-06-24T23:39:10.379Z,5.03
2018-06-24T23:41:38.464Z,4.40
2018-06-24T23:44:06.566Z,3.23
2018-06-24T23:46:34.612Z,2.93
2018-06-24T23:49:02.706Z,4.73
2018-06-24T23:51:30.769Z,3.80
2018-06-24T23:53:59.001Z,4.50
2018-06-24T23:56:27.065Z,4.27
2018-06-24T23:58:55.160Z,4.57
